ウィーン国際空港の過去48時間の天気

ウィーン国際空港 (Wien / Schwechat-Flughafen)

現在時刻: 6/15 16:09 CEST (6/15 14:09 UTC) 以下の時間は現地時間です。

過去48時間のMETAR気象情報
時間 風向 風速(m/s) 視程 気温(℃) 湿度(%) 気圧(hPa) 天気現象
15 15:50 北北西 3 10km以上 26 34 1018
15 15:20 4 10km以上 26 34 1018
15 14:50 3 10km以上 26 32 1018
15 14:20 3 10km以上 27 30 1019
15 13:50 北西 4 10km以上 26 32 1019
15 13:20 北北東 3 10km以上 25 36 1019
15 12:50 3 10km以上 24 38 1019
15 12:20 3 10km以上 24 41 1020
15 11:50 不定 2 10km以上 23 41 1020
15 11:20 不定 2 10km以上 22 46 1020
15 10:50 3 10km以上 21 46 1020
15 10:20 北北東 2 10km以上 21 46 1020
15 09:50 北北東 2 10km以上 20 53 1020
15 09:20 北北東 2 10km以上 19 52 1020
15 08:50 北北東 2 10km以上 18 56 1020
15 08:20 不定 1 10km以上 17 59 1020
15 07:50 不定 1 10km以上 17 59 1020
15 07:20 不定 1 10km以上 16 63 1020
15 06:50 西南西 2 10km以上 14 72 1020
15 06:20 不定 1 10km以上 11 87 1020
15 05:50 2 10km以上 9 93 1020
15 05:20 2 10km以上 9 81 1020
15 04:50 3 10km以上 8 93 1020
15 04:20 南南西 2 10km以上 9 87 1019
15 03:50 2 10km以上 9 87 1020
15 03:20 2 10km以上 9 87 1020
15 02:50 3 10km以上 8 93 1020
15 02:20 3 10km以上 9 87 1020
15 01:50 西 3 10km以上 14 67 1020
15 01:20 西南西 2 10km以上 14 67 1020
15 00:50 西 2 10km以上 14 63 1020
15 00:20 西南西 2 10km以上 13 67 1020
14 23:50 不定 1 10km以上 15 59 1020
14 23:20 2 10km以上 15 59 1020
14 22:50 2 10km以上 16 55 1020
14 22:20 不定 1 10km以上 16 55 1020
14 21:50 北東 2 10km以上 16 55 1020
14 21:20 北東 1 10km以上 18 52 1020
14 20:50 北東 2 10km以上 18 52 1020
14 20:20 北東 3 10km以上 20 46 1019
14 19:50 北北東 4 10km以上 21 40 1019
14 19:20 3 10km以上 21 40 1019
14 18:50 北北西 4 10km以上 22 38 1019
14 18:20 3 10km以上 22 38 1019
14 17:50 4 10km以上 22 35 1020
14 17:20 5 10km以上 22 38 1020
14 16:50 6 10km以上 22 35 1020
14 16:20 北北西 5 10km以上 22 38 1020
14 15:50 5 10km以上 22 35 1021
14 15:20 北北西 5 10km以上 22 41 1021
14 14:50 北北西 4 10km以上 21 40 1021
14 14:20 6 10km以上 22 41 1022
14 13:50 北西 6 10km以上 21 40 1022
14 13:20 北北西 6 10km以上 20 43 1022
14 12:50 6 10km以上 20 40 1023
14 12:20 6 10km以上 19 46 1023
14 11:50 北北西 5 10km以上 19 43 1023
14 11:20 北北西 5 10km以上 18 49 1024
14 10:50 北西 5 10km以上 18 45 1024
14 10:20 北北西 5 10km以上 18 45 1024
14 09:50 北西 5 10km以上 18 52 1024
14 09:20 4 10km以上 17 55 1024
14 08:50 北西 4 10km以上 16 59 1024
14 08:20 北西 5 10km以上 16 59 1024
14 07:50 北北西 5 10km以上 15 59 1024
14 07:20 北北西 5 10km以上 14 67 1024
14 06:50 北北西 4 10km以上 13 72 1024
14 06:20 北北西 4 10km以上 13 67 1024
14 05:50 北北西 4 10km以上 12 71 1024
14 05:20 北北西 3 10km以上 11 71 1024
14 04:50 北西 4 10km以上 11 71 1024
14 04:20 北西 5 10km以上 11 71 1024
14 03:50 北西 5 10km以上 11 71 1024
14 03:20 北西 6 10km以上 12 67 1024
14 02:50 北西 6 10km以上 12 67 1024
14 02:20 北西 6 10km以上 12 67 1024
14 01:50 北北西 5 10km以上 12 67 1025
14 01:20 北北西 5 10km以上 12 67 1025
14 00:50 北北西 5 10km以上 12 67 1025
14 00:20 北北西 6 10km以上 13 62 1025
13 23:50 北北西 6 10km以上 13 62 1025
13 23:20 7 10km以上 13 62 1025
13 22:50 北北西 5 10km以上 13 58 1024
13 22:20 北西 5 10km以上 14 55 1024
13 21:50 北北西 6 10km以上 14 55 1024
13 21:20 6 10km以上 15 51 1024
13 20:50 6 10km以上 15 51 1023
13 20:20 8 10km以上 16 48 1023
13 19:50 8 10km以上 17 45 1023
13 19:20 7 10km以上 17 45 1023
13 18:50 10 10km以上 18 42 1022
13 18:20 10 10km以上 18 42 1022
13 17:50 8 10km以上 19 43 1022
13 17:20 8 10km以上 20 40 1022
13 16:50 8 10km以上 20 40 1022
13 16:20 9 10km以上 20 40 1021
LOWW 151350Z 33006KT 280V040 CAVOK 26/09 Q1018 NOSIG
LOWW 151320Z 01007KT 270V060 CAVOK 26/09 Q1018 NOSIG
LOWW 151250Z VRB05KT CAVOK 26/08 Q1018 NOSIG
LOWW 151220Z VRB05KT CAVOK 27/08 Q1019 NOSIG
LOWW 151150Z 32008KT 250V360 CAVOK 26/08 Q1019 NOSIG
LOWW 151120Z 02005KT 320V080 CAVOK 25/09 Q1019 NOSIG
LOWW 151050Z VRB05KT CAVOK 24/09 Q1019 NOSIG
LOWW 151020Z VRB05KT CAVOK 24/10 Q1020 NOSIG
LOWW 150950Z VRB04KT CAVOK 23/09 Q1020 NOSIG
LOWW 150920Z VRB04KT CAVOK 22/10 Q1020 NOSIG
LOWW 150850Z 01005KT 330V060 CAVOK 21/09 Q1020 NOSIG
LOWW 150820Z 02004KT 300V070 CAVOK 21/09 Q1020 NOSIG
LOWW 150750Z 02004KT 320V080 CAVOK 20/10 Q1020 NOSIG
LOWW 150720Z 03004KT 350V060 CAVOK 19/09 Q1020 NOSIG
LOWW 150650Z 02004KT 330V060 CAVOK 18/09 Q1020 NOSIG
LOWW 150620Z VRB02KT CAVOK 17/09 Q1020 NOSIG
LOWW 150550Z VRB02KT CAVOK 17/09 Q1020 NOSIG
LOWW 150520Z VRB02KT CAVOK 16/09 Q1020 NOSIG
LOWW 150450Z 25003KT CAVOK 14/09 Q1020 NOSIG
LOWW 150420Z VRB02KT CAVOK 11/09 Q1020 NOSIG
LOWW 150350Z 18004KT CAVOK 09/08 Q1020 NOSIG
LOWW 150320Z 17003KT CAVOK 09/06 Q1020 NOSIG
LOWW 150250Z 18005KT CAVOK 08/07 Q1020 NOSIG
LOWW 150220Z 21003KT 140V240 CAVOK 09/07 Q1019 NOSIG
LOWW 150150Z 18004KT CAVOK 09/07 Q1020 NOSIG
LOWW 150120Z 17004KT CAVOK 09/07 Q1020 NOSIG
LOWW 150050Z 17006KT CAVOK 08/07 Q1020 NOSIG
LOWW 150020Z 17005KT CAVOK 09/07 Q1020 NOSIG
LOWW 142350Z 26005KT CAVOK 14/08 Q1020 NOSIG
LOWW 142320Z 25004KT CAVOK 14/08 Q1020 NOSIG
LOWW 142250Z 28004KT 250V330 CAVOK 14/07 Q1020 NOSIG
LOWW 142220Z 24004KT CAVOK 13/07 Q1020 NOSIG
LOWW 142150Z VRB01KT CAVOK 15/07 Q1020 NOSIG
LOWW 142120Z 08004KT CAVOK 15/07 Q1020 NOSIG
LOWW 142050Z 09004KT CAVOK 16/07 Q1020 NOSIG
LOWW 142020Z VRB01KT CAVOK 16/07 Q1020 NOSIG
LOWW 141950Z 05004KT CAVOK 16/07 Q1020 NOSIG
LOWW 141920Z 05002KT CAVOK 18/08 Q1020 NOSIG
LOWW 141850Z 05004KT CAVOK 18/08 Q1020 NOSIG
LOWW 141820Z 04005KT CAVOK 20/08 Q1019 NOSIG
LOWW 141750Z 03007KT CAVOK 21/07 Q1019 NOSIG
LOWW 141720Z 01006KT 330V030 CAVOK 21/07 Q1019 NOSIG
LOWW 141650Z 34007KT CAVOK 22/07 Q1019 NOSIG
LOWW 141620Z 36006KT 310V040 CAVOK 22/07 Q1019 NOSIG
LOWW 141550Z 35008KT 320V020 CAVOK 22/06 Q1020 NOSIG
LOWW 141520Z 36010KT 310V030 CAVOK 22/07 Q1020 NOSIG
LOWW 141450Z 35011KT CAVOK 22/06 Q1020 NOSIG
LOWW 141420Z 34009KT 310V020 CAVOK 22/07 Q1020 NOSIG
LOWW 141350Z 01010KT 320V040 CAVOK 22/06 Q1021 NOSIG
LOWW 141320Z 34009KT 300V020 CAVOK 22/08 Q1021 NOSIG
LOWW 141250Z 34008KT 280V030 CAVOK 21/07 Q1021 NOSIG
LOWW 141220Z 35012KT 320V020 CAVOK 22/08 Q1022 NOSIG
LOWW 141150Z 32011KT 290V360 9999 FEW050 21/07 Q1022 NOSIG
LOWW 141120Z 34011KT 310V010 9999 FEW050 20/07 Q1022 NOSIG
LOWW 141050Z 01011KT 300V040 9999 FEW050 20/06 Q1023 NOSIG
LOWW 141020Z 35012KT 310V030 9999 FEW050 19/07 Q1023 NOSIG
LOWW 140950Z 33010KT 9999 FEW050 19/06 Q1023 NOSIG
LOWW 140920Z 33010KT 300V360 9999 SCT048 18/07 Q1024 NOSIG
LOWW 140850Z 32010KT 280V350 9999 SCT048 18/06 Q1024 NOSIG
LOWW 140820Z 33010KT 9999 FEW044 SCT048 18/06 Q1024 NOSIG
LOWW 140750Z 32009KT 9999 SCT041 18/08 Q1024 NOSIG
LOWW 140720Z 01008KT 350V050 9999 FEW036 17/08 Q1024 NOSIG
LOWW 140650Z 32007KT 290V350 9999 FEW032 16/08 Q1024 NOSIG
LOWW 140620Z 32009KT 9999 FEW032 16/08 Q1024 NOSIG
LOWW 140550Z 34009KT 9999 FEW025 15/07 Q1024 NOSIG
LOWW 140520Z 34009KT CAVOK 14/08 Q1024 NOSIG
LOWW 140450Z 33007KT CAVOK 13/08 Q1024 NOSIG
LOWW 140420Z 33008KT CAVOK 13/07 Q1024 NOSIG
LOWW 140350Z 34007KT CAVOK 12/07 Q1024 NOSIG
LOWW 140320Z 33006KT CAVOK 11/06 Q1024 NOSIG
LOWW 140250Z 31008KT CAVOK 11/06 Q1024 NOSIG
LOWW 140220Z 32010KT CAVOK 11/06 Q1024 NOSIG
LOWW 140150Z 32009KT CAVOK 11/06 Q1024 NOSIG
LOWW 140120Z 32011KT CAVOK 12/06 Q1024 NOSIG
LOWW 140050Z 32012KT CAVOK 12/06 Q1024 NOSIG
LOWW 140020Z 32011KT CAVOK 12/06 Q1024 NOSIG
LOWW 132350Z 33010KT CAVOK 12/06 Q1025 NOSIG
LOWW 132320Z 33009KT CAVOK 12/06 Q1025 NOSIG
LOWW 132250Z 33010KT CAVOK 12/06 Q1025 NOSIG
LOWW 132220Z 33012KT CAVOK 13/06 Q1025 NOSIG
LOWW 132150Z 34012KT CAVOK 13/06 Q1025 NOSIG
LOWW 132120Z 35013KT CAVOK 13/06 Q1025 NOSIG
LOWW 132050Z 34009KT CAVOK 13/05 Q1024 NOSIG
LOWW 132020Z 32009KT 300V360 CAVOK 14/05 Q1024 NOSIG
LOWW 131950Z 33011KT 300V360 CAVOK 14/05 Q1024 NOSIG
LOWW 131920Z 35012KT 310V010 CAVOK 15/05 Q1024 NOSIG
LOWW 131850Z 35012KT CAVOK 15/05 Q1023 NOSIG
LOWW 131820Z 35015G28KT CAVOK 16/05 Q1023 NOSIG
LOWW 131750Z 35015G27KT CAVOK 17/05 Q1023 NOSIG
LOWW 131720Z 36014KT 320V030 CAVOK 17/05 Q1023 NOSIG
LOWW 131650Z 36019G31KT CAVOK 18/05 Q1022 NOSIG
LOWW 131620Z 36019G29KT 330V030 CAVOK 18/05 Q1022 NOSIG
LOWW 131550Z 36016KT 320V030 CAVOK 19/06 Q1022 NOSIG
LOWW 131520Z 36015KT 330V030 CAVOK 20/06 Q1022 NOSIG
LOWW 131450Z 35016KT 320V020 CAVOK 20/06 Q1022 NOSIG
LOWW 131420Z 35018G28KT CAVOK 20/06 Q1021 NOSIG